createdAt,value
2022-10-18T00:11:19.605Z,100.0
2022-10-18T00:16:19.597Z,100.0
2022-10-18T00:21:19.587Z,100.0
2022-10-18T00:26:19.595Z,100.0
2022-10-18T00:36:19.594Z,100.0
2022-10-18T00:51:19.607Z,100.0
2022-10-18T01:06:19.620Z,100.0
2022-10-18T01:26:19.626Z,100.0
2022-10-18T01:31:19.617Z,100.0
2022-10-18T01:36:19.626Z,100.0
2022-10-18T02:01:19.651Z,100.0
2022-10-18T02:06:19.630Z,100.0
2022-10-18T02:56:19.666Z,100.0
2022-10-18T03:11:19.649Z,100.0
2022-10-18T03:16:19.651Z,100.0
2022-10-18T03:26:19.662Z,100.0
2022-10-18T03:41:19.660Z,100.0
2022-10-18T04:16:19.674Z,100.0
2022-10-18T04:21:19.678Z,100.0
2022-10-18T04:31:19.683Z,100.0
2022-10-18T04:41:19.707Z,100.0
2022-10-18T05:06:19.720Z,100.0
2022-10-18T05:26:19.700Z,100.0
2022-10-18T05:31:19.698Z,100.0
2022-10-18T05:51:19.721Z,100.0
2022-10-18T06:46:19.740Z,100.0
2022-10-18T06:56:19.748Z,100.0
2022-10-18T07:01:19.839Z,100.0
2022-10-18T07:06:19.736Z,100.0
2022-10-18T07:11:19.741Z,100.0
2022-10-18T07:16:19.751Z,100.0
2022-10-18T07:21:19.746Z,100.0
2022-10-18T07:26:19.750Z,100.0
2022-10-18T07:31:19.766Z,100.0
2022-10-18T07:36:19.748Z,100.0
2022-10-18T07:41:19.757Z,100.0
2022-10-18T08:01:19.824Z,100.0
2022-10-18T08:11:19.758Z,100.0
2022-10-18T08:16:19.858Z,100.0
2022-10-18T08:21:19.765Z,100.0
2022-10-18T08:26:19.773Z,100.0
2022-10-18T08:31:19.773Z,100.0
2022-10-18T08:36:19.783Z,100.0
2022-10-18T08:41:19.766Z,100.0
2022-10-18T08:46:19.796Z,100.0
2022-10-18T08:51:19.784Z,100.0
2022-10-18T08:56:19.784Z,100.0
2022-10-18T09:11:19.837Z,100.0
2022-10-18T09:16:19.786Z,100.0
2022-10-18T09:21:19.779Z,100.0
2022-10-18T09:31:19.793Z,100.0
2022-10-18T09:36:19.785Z,99.2
2022-10-18T09:41:19.786Z,91.8
2022-10-18T09:46:19.797Z,80.4
2022-10-18T09:51:19.792Z,77.9
2022-10-18T09:56:19.803Z,80.8
2022-10-18T10:01:19.805Z,78.1
2022-10-18T10:06:19.798Z,78.3
2022-10-18T10:11:19.831Z,75.2
2022-10-18T10:16:19.819Z,74.5
2022-10-18T10:21:19.805Z,78.0
2022-10-18T10:26:19.811Z,75.6
2022-10-18T10:31:19.820Z,75.2
2022-10-18T10:36:19.806Z,81.2
2022-10-18T10:41:19.910Z,80.2
2022-10-18T10:46:19.824Z,76.5
2022-10-18T10:56:19.833Z,70.6
2022-10-18T11:06:19.835Z,75.6
2022-10-18T11:16:19.833Z,70.2
2022-10-18T11:21:19.821Z,67.5
2022-10-18T11:26:19.832Z,70.5
2022-10-18T11:31:19.841Z,66.7
2022-10-18T11:41:19.831Z,64.9
2022-10-18T11:46:19.839Z,69.7
2022-10-18T11:51:19.862Z,60.4
2022-10-18T11:56:19.839Z,64.5
2022-10-18T12:01:24.670Z,63.1
2022-10-18T12:06:19.839Z,63.1
2022-10-18T12:11:19.839Z,67.9
2022-10-18T12:16:33.475Z,63.5
2022-10-18T12:21:23.195Z,63.6
2022-10-18T12:31:19.864Z,67.8
2022-10-18T12:36:19.865Z,66.0
2022-10-18T12:41:19.857Z,66.3
2022-10-18T12:46:19.856Z,63.9
2022-10-18T12:51:19.874Z,65.4
2022-10-18T12:56:21.910Z,63.8
2022-10-18T13:01:19.956Z,64.6
2022-10-18T13:06:19.869Z,67.3
2022-10-18T13:11:19.879Z,65.6
2022-10-18T13:21:19.873Z,64.5
2022-10-18T13:26:19.871Z,61.2
2022-10-18T13:31:19.888Z,58.9
2022-10-18T13:36:22.958Z,61.2
2022-10-18T13:46:19.889Z,61.5
2022-10-18T13:56:19.897Z,54.0
2022-10-18T14:01:19.980Z,54.6
2022-10-18T14:06:19.903Z,60.2
2022-10-18T14:11:19.901Z,53.6
2022-10-18T14:16:19.900Z,53.3
2022-10-18T14:26:21.004Z,59.6
2022-10-18T14:31:19.917Z,59.6
2022-10-18T14:36:19.903Z,61.1
2022-10-18T14:41:19.909Z,51.5
2022-10-18T14:46:19.911Z,54.7
2022-10-18T14:51:20.006Z,54.6
2022-10-18T14:56:19.912Z,50.4
2022-10-18T15:01:19.933Z,53.7
2022-10-18T15:06:19.919Z,52.7
2022-10-18T15:11:19.920Z,57.8
2022-10-18T15:16:21.112Z,65.6
2022-10-18T15:26:19.915Z,59.6
2022-10-18T15:31:19.925Z,59.1
2022-10-18T15:36:19.919Z,65.1
2022-10-18T15:41:19.928Z,66.0
2022-10-18T15:46:19.933Z,62.3
2022-10-18T15:51:19.937Z,64.1
2022-10-18T15:56:19.940Z,66.0
2022-10-18T16:01:20.014Z,63.0
2022-10-18T16:06:19.939Z,62.3
2022-10-18T16:11:19.938Z,65.1
2022-10-18T16:16:19.944Z,67.4
2022-10-18T16:26:19.945Z,72.8
2022-10-18T16:31:19.962Z,71.6
2022-10-18T16:36:19.950Z,73.3
2022-10-18T16:41:19.957Z,78.4
2022-10-18T16:51:19.955Z,77.9
2022-10-18T16:56:19.961Z,77.4
2022-10-18T17:01:19.999Z,78.2
2022-10-18T17:06:19.952Z,81.1
2022-10-18T17:11:19.957Z,84.0
2022-10-18T17:16:20.017Z,82.5
2022-10-18T17:21:19.956Z,81.0
2022-10-18T17:26:28.511Z,82.1
2022-10-18T17:36:20.214Z,83.5
2022-10-18T17:41:19.971Z,85.8
2022-10-18T17:51:19.974Z,86.1
2022-10-18T18:01:19.986Z,89.9
2022-10-18T18:11:19.985Z,88.6
2022-10-18T18:16:20.002Z,86.0
2022-10-18T18:21:19.982Z,88.0
2022-10-18T18:31:20.003Z,91.2
2022-10-18T18:36:19.988Z,90.7
2022-10-18T18:46:19.995Z,89.9
2022-10-18T18:51:19.997Z,92.6
2022-10-18T19:06:23.119Z,90.3
2022-10-18T19:16:20.006Z,91.1
2022-10-18T19:21:20.049Z,92.2
2022-10-18T19:26:20.012Z,92.2
2022-10-18T19:31:20.011Z,89.4
2022-10-18T19:36:20.019Z,90.0
2022-10-18T19:41:20.120Z,92.7
2022-10-18T20:01:20.124Z,92.7
2022-10-18T20:06:20.013Z,93.3
2022-10-18T20:16:23.005Z,94.9
2022-10-18T20:21:20.034Z,91.5
2022-10-18T20:26:20.838Z,91.1
2022-10-18T20:36:20.042Z,93.4
2022-10-18T20:46:20.032Z,93.9
2022-10-18T20:56:20.082Z,92.3
2022-10-18T21:01:20.244Z,94.7
2022-10-18T21:06:20.050Z,95.2
2022-10-18T21:11:22.539Z,91.9
2022-10-18T21:16:20.050Z,93.1
2022-10-18T21:21:20.053Z,93.5
2022-10-18T21:26:20.038Z,92.6
2022-10-18T21:36:20.045Z,92.3
2022-10-18T21:41:20.068Z,94.6
2022-10-18T21:46:20.059Z,93.0
2022-10-18T21:51:20.771Z,92.1
2022-10-18T21:56:20.068Z,94.0
2022-10-18T22:01:20.163Z,91.6
2022-10-18T22:11:20.074Z,92.5
2022-10-18T22:16:20.085Z,93.5
2022-10-18T22:21:20.073Z,93.8
2022-10-18T22:26:20.059Z,97.4
2022-10-18T22:31:20.068Z,93.1
2022-10-18T22:36:20.076Z,92.6
2022-10-18T22:41:20.066Z,91.9
2022-10-18T22:51:20.083Z,93.9
2022-10-18T22:56:20.068Z,93.1
2022-10-18T23:01:20.083Z,95.3
2022-10-18T23:06:20.095Z,93.3
2022-10-18T23:21:20.078Z,93.6
2022-10-18T23:31:20.092Z,94.1
2022-10-18T23:36:20.091Z,95.2
2022-10-18T23:41:20.091Z,94.7
2022-10-18T23:46:20.140Z,90.6
2022-10-18T23:51:20.097Z,91.5
2022-10-18T23:56:20.103Z,93.5
